Folsom, California
Current Conditions -  °F | °C
As of 10:55 AM on Thursday 23 Oct 2014 (Local Time) from KMHR Reporting Station
Broken Clouds Broken Clouds  
Wind Chill: 68°   Ceiling: 20000
Heat Index: 68°   Visibility: 10mi
Dew Point: 54°   Wind: 3mph
Humidity: 60%   Direction: 220°SW
Pressure: 30.06"   Gusts: NA
Location:  38.68°N, 121.16°W
Report Text: KMHR 231755Z 22003KT 10SM BKN200 20/12 A3006
Loading
Personal Weather Stations






























Interactive Weather Map New forecast layout! Learn more

10-Day Weather Forecast

Advertisements
Track Severe Weather on mobile